Time;durP1;ratioP1;P1;durP2;ratioP2;P2;SDS_P1;SDS_P2;PMS_P1;PMS_P2;Temp;Humidity;BMP_temperature;BMP_pressure;BME280_temperature;BME280_humidity;BME280_pressure;Samples;Min_cycle;Max_cycle;Signal;HPM_P1;HPM_P2
2023/08/16 00:02:11;;;;;;;7.33;6.53;;;;;;;;;;5050761;28;20124;-63
2023/08/16 00:04:37;;;;;;;23.87;8.00;;;;;;;;;;5051818;28;20013;-63
2023/08/16 00:07:02;;;;;;;10.20;5.53;;;;;;;;;;5049643;28;20040;-62
2023/08/16 00:09:27;;;;;;;6.28;5.15;;;;;;;;;;5050984;28;20383;-63
2023/08/16 00:11:52;;;;;;;6.57;5.30;;;;;;;;;;5050664;28;20029;-62
2023/08/16 00:14:18;;;;;;;5.80;4.38;;;;;;;;;;5051194;28;20032;-62
2023/08/16 00:16:43;;;;;;;5.75;5.03;;;;;;;;;;5050174;28;20043;-63
2023/08/16 00:19:08;;;;;;;9.17;4.67;;;;;;;;;;5051720;28;20037;-62
2023/08/16 00:21:33;;;;;;;6.73;5.33;;;;;;;;;;5049419;28;20439;-62
2023/08/16 00:23:59;;;;;;;6.18;4.55;;;;;;;;;;5051623;28;20044;-62
2023/08/16 00:26:24;;;;;;;4.97;4.57;;;;;;;;;;5049678;28;20476;-62
2023/08/16 00:28:49;;;;;;;8.63;5.60;;;;;;;;;;5050909;28;20074;-62
2023/08/16 00:31:14;;;;;;;6.03;5.30;;;;;;;;;;5049913;28;20041;-62
2023/08/16 00:33:40;;;;;;;9.38;6.47;;;;;;;;;;5051584;28;20486;-62
2023/08/16 00:36:06;;;;;;;6.53;5.10;;;;;;;;;;5049286;28;20044;-62
2023/08/16 00:38:31;;;;;;;7.80;4.97;;;;;;;;;;5049745;28;20438;-62
2023/08/16 00:40:57;;;;;;;7.33;4.83;;;;;;;;;;5050001;28;20037;-62
2023/08/16 00:43:22;;;;;;;11.55;5.22;;;;;;;;;;5049453;28;20021;-62
2023/08/16 00:45:48;;;;;;;7.38;5.85;;;;;;;;;;5049626;28;20391;-62
2023/08/16 00:48:13;;;;;;;9.32;5.78;;;;;;;;;;5050950;28;20025;-62
2023/08/16 00:50:39;;;;;;;9.48;4.72;;;;;;;;;;5049014;28;20013;-63
2023/08/16 00:53:05;;;;;;;4.00;3.58;;;;;;;;;;5050891;28;20048;-62
2023/08/16 00:55:30;;;;;;;5.18;4.65;;;;;;;;;;5050928;28;20104;-62
2023/08/16 00:57:55;;;;;;;5.93;3.70;;;;;;;;;;5048789;28;20029;-62
2023/08/16 01:00:21;;;;;;;5.45;3.83;;;;;;;;;;5050979;28;20024;-62
2023/08/16 01:02:46;;;;;;;8.23;4.80;;;;;;;;;;5049604;28;20041;-62
2023/08/16 01:05:11;;;;;;;3.93;3.47;;;;;;;;;;5050489;28;20423;-64
2023/08/16 01:07:36;;;;;;;3.58;3.25;;;;;;;;;;5049126;28;20377;-63
2023/08/16 01:10:03;;;;;;;9.27;4.70;;;;;;;;;;5050960;28;20017;-62
2023/08/16 01:12:38;;;;;;;5.95;4.22;;;;;;;;;;5048908;28;20405;-63
2023/08/16 01:15:08;;;;;;;10.90;5.22;;;;;;;;;;5050811;28;20492;-62
2023/08/16 01:17:33;;;;;;;10.23;4.88;;;;;;;;;;5047696;28;20045;-63
2023/08/16 01:20:00;;;;;;;5.60;4.05;;;;;;;;;;5050238;28;20412;-63
2023/08/16 01:22:43;;;;;;;8.50;4.15;;;;;;;;;;5049186;28;20167;-63
2023/08/16 01:25:27;;;;;;;4.05;3.65;;;;;;;;;;5050646;28;20028;-62
2023/08/16 01:27:53;;;;;;;7.25;4.35;;;;;;;;;;5048552;28;20061;-62
2023/08/16 01:30:20;;;;;;;7.60;5.22;;;;;;;;;;5050528;28;20036;-63
2023/08/16 01:32:47;;;;;;;7.45;4.32;;;;;;;;;;5049495;28;20036;-62
2023/08/16 01:35:12;;;;;;;9.77;4.43;;;;;;;;;;5050630;28;20018;-62
2023/08/16 01:37:37;;;;;;;6.40;4.27;;;;;;;;;;5043691;28;20041;-63
2023/08/16 01:40:04;;;;;;;6.27;5.67;;;;;;;;;;5030706;28;20022;-62
2023/08/16 01:42:32;;;;;;;5.77;4.67;;;;;;;;;;5028765;28;20038;-62
2023/08/16 01:44:59;;;;;;;5.75;4.65;;;;;;;;;;5034975;28;20021;-62
2023/08/16 01:47:24;;;;;;;5.07;4.22;;;;;;;;;;5043888;28;20033;-62
2023/08/16 01:49:50;;;;;;;6.68;4.30;;;;;;;;;;5030181;28;20361;-62
2023/08/16 01:52:15;;;;;;;9.32;5.00;;;;;;;;;;5029054;28;20034;-62
2023/08/16 01:54:41;;;;;;;7.40;5.18;;;;;;;;;;5030745;28;20025;-62
2023/08/16 01:57:06;;;;;;;6.60;4.17;;;;;;;;;;5036382;28;20079;-62
2023/08/16 01:59:31;;;;;;;8.93;5.30;;;;;;;;;;5048924;28;20454;-62
2023/08/16 02:01:56;;;;;;;9.73;4.80;;;;;;;;;;5048695;28;20043;-62
2023/08/16 02:04:21;;;;;;;5.20;4.80;;;;;;;;;;5050469;28;20519;-62
2023/08/16 02:06:46;;;;;;;6.10;4.17;;;;;;;;;;5052827;28;20095;-62
2023/08/16 02:09:12;;;;;;;8.90;4.53;;;;;;;;;;5054180;28;20039;-63
2023/08/16 02:11:37;;;;;;;9.60;5.22;;;;;;;;;;5051687;28;20530;-62
2023/08/16 02:14:02;;;;;;;7.50;6.40;;;;;;;;;;5054382;28;20609;-62
2023/08/16 02:16:27;;;;;;;6.20;5.60;;;;;;;;;;5052156;28;20094;-62
2023/08/16 02:18:52;;;;;;;7.93;4.90;;;;;;;;;;5053511;28;20045;-62
2023/08/16 02:21:17;;;;;;;11.05;5.20;;;;;;;;;;5052329;28;20445;-62
2023/08/16 02:23:43;;;;;;;7.93;6.33;;;;;;;;;;5054012;28;20024;-62
2023/08/16 02:26:08;;;;;;;8.23;6.07;;;;;;;;;;5052028;28;20446;-62
2023/08/16 02:28:33;;;;;;;8.87;4.97;;;;;;;;;;5053487;28;20450;-62
2023/08/16 02:31:05;;;;;;;9.05;4.82;;;;;;;;;;5052565;28;20459;-62
2023/08/16 02:33:31;;;;;;;5.90;5.22;;;;;;;;;;5051936;28;20017;-62
2023/08/16 02:35:56;;;;;;;8.00;6.07;;;;;;;;;;5052368;28;20037;-62
2023/08/16 02:38:21;;;;;;;4.40;4.00;;;;;;;;;;5053129;28;20029;-62
2023/08/16 02:40:46;;;;;;;5.87;5.27;;;;;;;;;;5051982;28;20017;-62
2023/08/16 02:43:11;;;;;;;7.10;4.85;;;;;;;;;;5053410;28;20408;-62
2023/08/16 02:45:36;;;;;;;8.82;4.78;;;;;;;;;;5051896;28;20024;-62
2023/08/16 02:48:02;;;;;;;5.82;5.00;;;;;;;;;;5048740;28;20582;-63
2023/08/16 02:50:28;;;;;;;7.97;5.72;;;;;;;;;;5032908;28;20053;-63
2023/08/16 02:52:53;;;;;;;11.32;8.43;;;;;;;;;;5030761;28;20037;-62
2023/08/16 02:55:18;;;;;;;7.32;6.70;;;;;;;;;;5033307;28;20017;-62
2023/08/16 02:57:43;;;;;;;5.85;4.93;;;;;;;;;;5045903;28;20496;-62
2023/08/16 03:00:09;;;;;;;5.43;3.80;;;;;;;;;;5053552;28;20044;-62
2023/08/16 03:02:34;;;;;;;7.00;5.07;;;;;;;;;;5050279;28;20033;-62
2023/08/16 03:05:00;;;;;;;7.85;5.05;;;;;;;;;;5052827;28;20361;-62
2023/08/16 03:07:25;;;;;;;6.27;4.63;;;;;;;;;;5051163;28;20157;-62
2023/08/16 03:09:50;;;;;;;5.63;4.87;;;;;;;;;;5052829;28;20388;-63
2023/08/16 03:12:15;;;;;;;7.55;5.95;;;;;;;;;;5051164;28;20044;-62
2023/08/16 03:14:40;;;;;;;6.50;5.18;;;;;;;;;;5053009;28;20029;-63
2023/08/16 03:17:05;;;;;;;9.25;5.20;;;;;;;;;;5050841;28;20103;-62
2023/08/16 03:19:30;;;;;;;11.57;5.47;;;;;;;;;;5051752;28;20057;-62
2023/08/16 03:21:56;;;;;;;8.07;4.68;;;;;;;;;;5050142;28;20047;-62
2023/08/16 03:24:22;;;;;;;6.97;5.40;;;;;;;;;;5052543;28;20434;-62
2023/08/16 03:26:47;;;;;;;7.55;5.63;;;;;;;;;;5050876;28;20080;-62
2023/08/16 03:29:12;;;;;;;6.25;5.70;;;;;;;;;;5052633;28;20025;-62
2023/08/16 03:31:37;;;;;;;16.10;12.67;;;;;;;;;;5051379;28;20029;-63
2023/08/16 03:34:03;;;;;;;9.65;7.78;;;;;;;;;;5052690;28;20454;-62
2023/08/16 03:36:28;;;;;;;7.75;5.90;;;;;;;;;;5050662;28;20033;-62
2023/08/16 03:38:53;;;;;;;9.93;6.47;;;;;;;;;;5052386;28;20017;-62
2023/08/16 03:41:18;;;;;;;22.10;17.77;;;;;;;;;;5050340;28;20492;-61
2023/08/16 03:43:43;;;;;;;16.13;13.93;;;;;;;;;;5052553;28;20025;-63
2023/08/16 03:46:08;;;;;;;11.48;9.10;;;;;;;;;;5050895;28;20025;-62
2023/08/16 03:48:34;;;;;;;8.95;8.15;;;;;;;;;;5051899;28;20135;-63
2023/08/16 03:50:59;;;;;;;16.23;14.73;;;;;;;;;;5051105;28;20040;-62
2023/08/16 03:53:24;;;;;;;9.23;8.13;;;;;;;;;;5052073;28;20118;-62
2023/08/16 03:55:55;;;;;;;10.20;8.55;;;;;;;;;;5049420;28;20021;-63
2023/08/16 03:58:20;;;;;;;10.07;8.77;;;;;;;;;;5050945;28;20081;-63
2023/08/16 04:00:47;;;;;;;12.50;9.73;;;;;;;;;;5050538;28;20503;-63
2023/08/16 04:03:12;;;;;;;13.60;7.22;;;;;;;;;;5051787;28;20147;-64
2023/08/16 04:05:37;;;;;;;15.63;13.82;;;;;;;;;;5050305;28;20099;-64
2023/08/16 04:08:02;;;;;;;14.30;13.02;;;;;;;;;;5051601;28;20017;-64
2023/08/16 04:10:28;;;;;;;15.32;7.93;;;;;;;;;;5050728;28;20047;-63
2023/08/16 04:12:53;;;;;;;11.48;5.43;;;;;;;;;;5050426;28;20377;-63
2023/08/16 04:15:18;;;;;;;6.18;4.43;;;;;;;;;;5051845;28;20021;-61
2023/08/16 04:17:43;;;;;;;5.40;4.47;;;;;;;;;;5049399;28;20040;-66
2023/08/16 04:20:10;;;;;;;7.43;4.60;;;;;;;;;;5050981;28;20055;-66
2023/08/16 04:22:35;;;;;;;12.57;5.38;;;;;;;;;;5049924;28;20029;-66
2023/08/16 04:25:01;;;;;;;7.57;4.47;;;;;;;;;;5051325;28;20029;-66
2023/08/16 04:27:26;;;;;;;7.72;5.15;;;;;;;;;;5048558;28;20496;-66
2023/08/16 04:29:51;;;;;;;8.10;5.50;;;;;;;;;;5051415;28;20053;-66
2023/08/16 04:32:17;;;;;;;11.15;5.53;;;;;;;;;;5049134;28;20044;-67
2023/08/16 04:34:42;;;;;;;7.27;5.47;;;;;;;;;;5051372;28;20009;-66
2023/08/16 04:37:07;;;;;;;10.95;9.77;;;;;;;;;;5049878;28;20459;-65
2023/08/16 04:39:32;;;;;;;15.63;12.53;;;;;;;;;;5050746;28;20059;-65
2023/08/16 04:41:57;;;;;;;12.77;9.90;;;;;;;;;;5050015;28;20101;-65
2023/08/16 04:44:23;;;;;;;14.40;13.13;;;;;;;;;;5051329;28;20024;-65
2023/08/16 04:46:49;;;;;;;23.70;13.07;;;;;;;;;;5048858;28;20474;-65
2023/08/16 04:49:15;;;;;;;13.02;11.65;;;;;;;;;;5051331;28;20479;-65
2023/08/16 04:51:40;;;;;;;13.60;6.97;;;;;;;;;;5049785;28;20108;-65
2023/08/16 04:54:07;;;;;;;8.97;5.87;;;;;;;;;;5050339;28;20472;-65
2023/08/16 04:56:32;;;;;;;10.43;7.10;;;;;;;;;;5047368;28;20040;-64
2023/08/16 04:58:57;;;;;;;7.88;6.80;;;;;;;;;;5049639;28;20437;-64
2023/08/16 05:01:22;;;;;;;10.50;5.90;;;;;;;;;;5049432;28;20028;-64
2023/08/16 05:03:52;;;;;;;11.60;6.53;;;;;;;;;;5050260;28;20523;-64
2023/08/16 05:06:17;;;;;;;12.13;6.43;;;;;;;;;;5047754;28;20041;-65
2023/08/16 05:08:42;;;;;;;10.07;6.63;;;;;;;;;;5050248;28;20438;-65
2023/08/16 05:11:08;;;;;;;11.52;7.68;;;;;;;;;;5047847;28;20047;-64
2023/08/16 05:13:33;;;;;;;9.05;6.95;;;;;;;;;;5049042;28;20017;-65
2023/08/16 05:15:58;;;;;;;12.03;6.10;;;;;;;;;;5049054;28;20040;-65
2023/08/16 05:18:23;;;;;;;14.35;7.50;;;;;;;;;;5049331;28;20061;-65
2023/08/16 05:20:48;;;;;;;8.53;5.97;;;;;;;;;;5046985;28;20020;-65
2023/08/16 05:23:13;;;;;;;8.95;6.47;;;;;;;;;;5049239;28;20417;-65
2023/08/16 05:25:39;;;;;;;11.37;6.07;;;;;;;;;;5048272;28;20123;-65
2023/08/16 05:28:04;;;;;;;8.93;6.90;;;;;;;;;;5048141;28;20435;-66
2023/08/16 05:30:29;;;;;;;8.10;5.78;;;;;;;;;;5050009;28;20103;-66
2023/08/16 05:32:55;;;;;;;7.73;5.93;;;;;;;;;;5048397;28;20036;-66
2023/08/16 05:35:20;;;;;;;8.57;7.45;;;;;;;;;;5048952;28;20017;-66
2023/08/16 05:37:45;;;;;;;13.47;5.60;;;;;;;;;;5048024;28;20029;-66
2023/08/16 05:40:11;;;;;;;9.73;6.03;;;;;;;;;;5053725;28;20096;-66
2023/08/16 05:42:36;;;;;;;10.18;7.72;;;;;;;;;;5051435;28;20048;-66
2023/08/16 05:45:01;;;;;;;8.27;6.87;;;;;;;;;;5054228;28;20463;-67
2023/08/16 05:47:26;;;;;;;9.27;6.80;;;;;;;;;;5052206;28;20048;-67
2023/08/16 05:49:51;;;;;;;8.85;6.57;;;;;;;;;;5052804;28;20463;-66
2023/08/16 05:52:17;;;;;;;12.17;8.33;;;;;;;;;;5052538;28;20103;-66
2023/08/16 05:54:42;;;;;;;10.27;5.80;;;;;;;;;;5053925;28;20025;-66
2023/08/16 05:57:07;;;;;;;11.15;8.63;;;;;;;;;;5051106;28;20447;-68
2023/08/16 05:59:32;;;;;;;13.63;7.43;;;;;;;;;;5053431;28;20031;-68
2023/08/16 06:01:57;;;;;;;20.10;12.60;;;;;;;;;;5052297;28;20056;-66
2023/08/16 06:04:22;;;;;;;16.48;8.80;;;;;;;;;;5052675;28;20031;-66
2023/08/16 06:06:49;;;;;;;13.00;7.07;;;;;;;;;;5051920;28;20042;-68
2023/08/16 06:09:14;;;;;;;21.08;9.95;;;;;;;;;;5052606;28;20419;-68
2023/08/16 06:11:39;;;;;;;11.25;6.53;;;;;;;;;;5049545;28;20041;-59
2023/08/16 06:14:04;;;;;;;12.80;6.33;;;;;;;;;;5068987;28;20029;-58
2023/08/16 06:16:29;;;;;;;16.10;11.80;;;;;;;;;;5050604;28;20053;-60
2023/08/16 06:18:55;;;;;;;18.83;9.77;;;;;;;;;;5052792;28;20403;-61
2023/08/16 06:21:21;;;;;;;15.98;11.80;;;;;;;;;;5051473;28;20041;-60
2023/08/16 06:23:47;;;;;;;13.85;8.30;;;;;;;;;;5053256;28;20441;-60
2023/08/16 06:26:12;;;;;;;11.23;8.32;;;;;;;;;;5051701;28;20055;-60
2023/08/16 06:28:38;;;;;;;11.20;6.80;;;;;;;;;;5053554;28;20570;-60
2023/08/16 06:31:03;;;;;;;9.50;8.47;;;;;;;;;;5051900;28;20043;-60
2023/08/16 06:33:28;;;;;;;14.90;8.00;;;;;;;;;;5052025;28;20458;-61
2023/08/16 06:35:54;;;;;;;8.82;7.20;;;;;;;;;;5051855;28;20033;-61
2023/08/16 06:38:19;;;;;;;10.82;6.82;;;;;;;;;;5052432;28;20036;-61
2023/08/16 06:40:44;;;;;;;13.00;6.20;;;;;;;;;;5051674;28;20028;-61
2023/08/16 06:43:09;;;;;;;9.55;7.82;;;;;;;;;;5053185;28;20451;-61
2023/08/16 06:45:34;;;;;;;9.47;8.03;;;;;;;;;;5051088;28;20071;-60
2023/08/16 06:48:03;;;;;;;6.63;5.67;;;;;;;;;;5052864;28;20380;-61
2023/08/16 06:50:28;;;;;;;11.30;7.05;;;;;;;;;;5051163;28;20032;-61
2023/08/16 06:52:53;;;;;;;11.98;7.00;;;;;;;;;;5051383;28;20037;-61
2023/08/16 06:55:19;;;;;;;19.60;10.13;;;;;;;;;;5052489;28;20028;-61
2023/08/16 06:57:44;;;;;;;9.60;6.35;;;;;;;;;;5051244;28;20060;-62
2023/08/16 07:00:11;;;;;;;13.43;7.70;;;;;;;;;;5050895;28;20025;-61
2023/08/16 07:02:36;;;;;;;10.93;7.45;;;;;;;;;;5048300;28;20040;-61
2023/08/16 07:05:02;;;;;;;12.03;7.47;;;;;;;;;;5052151;28;20017;-61
2023/08/16 07:07:27;;;;;;;12.38;6.53;;;;;;;;;;5048598;28;20064;-62
2023/08/16 07:09:52;;;;;;;13.97;7.60;;;;;;;;;;5052550;28;20032;-61
2023/08/16 07:12:17;;;;;;;13.67;8.07;;;;;;;;;;5050384;28;20033;-61
2023/08/16 07:14:42;;;;;;;17.17;9.25;;;;;;;;;;5051838;28;20435;-61
2023/08/16 07:17:07;;;;;;;21.20;15.07;;;;;;;;;;5051095;28;20514;-60
2023/08/16 07:19:33;;;;;;;15.20;11.27;;;;;;;;;;5051357;28;20119;-60
2023/08/16 07:21:58;;;;;;;10.98;6.90;;;;;;;;;;5050988;28;20087;-60
2023/08/16 07:24:23;;;;;;;14.27;9.60;;;;;;;;;;5051997;28;20383;-60
2023/08/16 07:26:48;;;;;;;12.93;6.43;;;;;;;;;;5051241;28;20029;-60
2023/08/16 07:29:13;;;;;;;9.53;6.53;;;;;;;;;;5051645;28;20020;-61
2023/08/16 07:31:38;;;;;;;10.57;6.23;;;;;;;;;;5049985;28;20470;-60
2023/08/16 07:34:03;;;;;;;7.25;6.15;;;;;;;;;;5052122;28;20083;-61
2023/08/16 07:36:29;;;;;;;10.07;5.03;;;;;;;;;;5050473;28;20045;-60
2023/08/16 07:38:54;;;;;;;7.72;5.10;;;;;;;;;;5051783;28;20013;-60
2023/08/16 07:41:19;;;;;;;12.17;6.73;;;;;;;;;;5050599;28;20041;-60
2023/08/16 07:43:44;;;;;;;6.87;5.43;;;;;;;;;;5052289;28;20446;-60
2023/08/16 07:46:09;;;;;;;9.27;4.70;;;;;;;;;;5049085;28;20114;-60
2023/08/16 07:48:34;;;;;;;7.27;3.30;;;;;;;;;;5051881;28;20060;-60
2023/08/16 07:51:00;;;;;;;6.57;3.13;;;;;;;;;;5050686;28;20455;-61
2023/08/16 07:53:25;;;;;;;5.90;3.37;;;;;;;;;;5051119;28;20104;-60
2023/08/16 07:55:51;;;;;;;21.40;5.00;;;;;;;;;;5050486;28;20905;-61
2023/08/16 07:58:16;;;;;;;6.05;3.35;;;;;;;;;;5050888;28;20103;-61
2023/08/16 08:00:42;;;;;;;9.43;4.17;;;;;;;;;;5049413;28;20024;-60
2023/08/16 08:03:09;;;;;;;11.45;5.53;;;;;;;;;;5050785;28;20463;-61
2023/08/16 08:05:35;;;;;;;7.00;4.68;;;;;;;;;;5049965;28;20110;-59
2023/08/16 08:08:00;;;;;;;4.78;3.47;;;;;;;;;;5049871;28;20503;-61
2023/08/16 08:10:25;;;;;;;6.80;3.53;;;;;;;;;;5051526;28;20056;-60
2023/08/16 08:12:51;;;;;;;11.33;4.80;;;;;;;;;;5049826;28;20037;-61
2023/08/16 08:15:16;;;;;;;9.47;3.00;;;;;;;;;;5051035;28;20017;-60
2023/08/16 08:17:41;;;;;;;3.80;3.25;;;;;;;;;;5048468;28;21017;-61
2023/08/16 08:20:07;;;;;;;5.33;2.87;;;;;;;;;;5051064;28;20076;-61
2023/08/16 08:22:33;;;;;;;9.38;3.20;;;;;;;;;;5049485;28;20052;-60
2023/08/16 08:24:58;;;;;;;4.13;3.50;;;;;;;;;;5051217;28;20074;-61
2023/08/16 08:27:23;;;;;;;4.13;2.70;;;;;;;;;;5049604;28;20448;-61
2023/08/16 08:29:48;;;;;;;8.47;2.63;;;;;;;;;;5050770;28;20497;-60
2023/08/16 08:32:13;;;;;;;2.53;2.33;;;;;;;;;;5048864;28;20127;-62
2023/08/16 08:34:39;;;;;;;10.37;2.80;;;;;;;;;;5051068;28;20017;-61
2023/08/16 08:37:04;;;;;;;5.35;3.25;;;;;;;;;;5049068;28;20071;-61
2023/08/16 08:39:30;;;;;;;5.33;2.30;;;;;;;;;;5044991;28;20017;-61
2023/08/16 08:41:55;;;;;;;8.65;2.53;;;;;;;;;;5047233;28;20458;-61
2023/08/16 08:44:21;;;;;;;6.75;2.70;;;;;;;;;;5050648;28;20017;-61
2023/08/16 08:46:47;;;;;;;8.07;2.92;;;;;;;;;;5049629;28;20036;-61
2023/08/16 08:49:13;;;;;;;6.10;4.38;;;;;;;;;;5051125;28;20388;-60
2023/08/16 08:51:39;;;;;;;9.05;3.03;;;;;;;;;;5047808;28;20124;-60
2023/08/16 08:54:04;;;;;;;3.33;3.03;;;;;;;;;;5050842;28;20104;-61
2023/08/16 08:56:30;;;;;;;3.78;2.15;;;;;;;;;;5049110;28;20441;-61
2023/08/16 08:58:56;;;;;;;6.03;2.33;;;;;;;;;;5048182;28;20032;-60
2023/08/16 09:01:23;;;;;;;6.20;3.03;;;;;;;;;;5047775;28;20123;-61
2023/08/16 09:03:49;;;;;;;18.70;4.65;;;;;;;;;;5049775;28;20045;-61
2023/08/16 09:06:15;;;;;;;9.30;3.38;;;;;;;;;;5042528;28;20037;-61
2023/08/16 09:08:41;;;;;;;5.20;2.03;;;;;;;;;;5030587;28;20032;-61
2023/08/16 09:11:06;;;;;;;7.97;2.63;;;;;;;;;;5011307;28;20057;-61
2023/08/16 09:13:32;;;;;;;6.22;2.97;;;;;;;;;;5028794;28;20373;-61
2023/08/16 09:15:59;;;;;;;7.53;2.42;;;;;;;;;;5024688;28;20119;-61
2023/08/16 09:18:26;;;;;;;4.70;2.60;;;;;;;;;;5027391;28;20046;-61
2023/08/16 09:20:52;;;;;;;5.85;2.63;;;;;;;;;;5028100;28;20018;-61
2023/08/16 09:23:17;;;;;;;6.70;2.45;;;;;;;;;;5029689;28;20017;-61
2023/08/16 09:25:44;;;;;;;5.53;2.42;;;;;;;;;;5027799;28;20021;-61
2023/08/16 09:28:10;;;;;;;2.42;1.48;;;;;;;;;;5029649;28;20014;-60
2023/08/16 09:30:36;;;;;;;2.05;1.73;;;;;;;;;;5027855;28;20088;-60
2023/08/16 09:33:01;;;;;;;5.57;2.58;;;;;;;;;;5029652;28;20029;-60
2023/08/16 09:35:28;;;;;;;6.53;1.83;;;;;;;;;;5030029;28;20036;-61
2023/08/16 09:38:00;;;;;;;5.93;2.40;;;;;;;;;;5028156;28;20456;-61
2023/08/16 09:40:25;;;;;;;6.80;2.65;;;;;;;;;;5029615;28;20514;-60
2023/08/16 09:42:51;;;;;;;2.47;1.92;;;;;;;;;;5027787;28;20038;-61
2023/08/16 09:45:32;;;;;;;9.40;2.15;;;;;;;;;;5029314;28;20021;-61
2023/08/16 09:47:59;;;;;;;10.43;1.92;;;;;;;;;;5028293;28;20038;-60
2023/08/16 09:50:25;;;;;;;7.57;4.28;;;;;;;;;;5029723;28;20033;-60
2023/08/16 09:52:50;;;;;;;6.07;3.00;;;;;;;;;;5027224;28;20029;-61
2023/08/16 09:55:25;;;;;;;10.00;2.65;;;;;;;;;;5032595;28;20112;-61
2023/08/16 09:57:51;;;;;;;6.38;2.33;;;;;;;;;;5028482;28;20443;-61
2023/08/16 10:00:16;;;;;;;14.10;3.38;;;;;;;;;;5027583;28;20021;-61
2023/08/16 10:02:42;;;;;;;4.70;2.20;;;;;;;;;;5028242;28;20049;-61
2023/08/16 10:05:08;;;;;;;5.28;2.40;;;;;;;;;;5028381;28;20029;-61
2023/08/16 10:07:33;;;;;;;3.47;2.30;;;;;;;;;;5044817;28;20044;-60
2023/08/16 10:09:58;;;;;;;3.20;1.77;;;;;;;;;;5049644;28;20470;-61
2023/08/16 10:12:23;;;;;;;4.63;2.88;;;;;;;;;;5047624;28;20037;-60
2023/08/16 10:14:48;;;;;;;2.43;2.23;;;;;;;;;;5049769;28;20017;-61
2023/08/16 10:17:15;;;;;;;4.83;1.90;;;;;;;;;;5044114;28;20456;-62
2023/08/16 10:19:42;;;;;;;3.95;2.72;;;;;;;;;;5049018;28;20474;-61
2023/08/16 10:22:13;;;;;;;5.70;2.15;;;;;;;;;;5048521;28;20515;-61
2023/08/16 10:24:39;;;;;;;5.13;2.13;;;;;;;;;;5049198;28;20035;-61
2023/08/16 10:27:05;;;;;;;4.43;3.35;;;;;;;;;;5051669;28;20037;-61
2023/08/16 10:29:37;;;;;;;3.60;2.15;;;;;;;;;;5053168;28;20021;-61
2023/08/16 10:32:07;;;;;;;9.05;2.88;;;;;;;;;;5043459;28;20455;-61
2023/08/16 10:34:32;;;;;;;5.85;2.85;;;;;;;;;;5052960;28;20321;-61
2023/08/16 10:36:58;;;;;;;6.00;2.30;;;;;;;;;;5051719;28;20052;-61
2023/08/16 10:39:23;;;;;;;10.83;2.80;;;;;;;;;;5053154;28;20419;-61
2023/08/16 10:41:53;;;;;;;4.63;1.85;;;;;;;;;;5052048;28;20501;-61
2023/08/16 10:44:22;;;;;;;3.00;2.40;;;;;;;;;;5053795;28;20100;-61
2023/08/16 10:46:48;;;;;;;4.88;2.70;;;;;;;;;;5052400;28;20029;-61
2023/08/16 10:49:13;;;;;;;5.72;2.15;;;;;;;;;;5051593;28;20028;-62
2023/08/16 10:51:46;;;;;;;4.33;2.90;;;;;;;;;;5051956;28;20124;-61
2023/08/16 10:54:11;;;;;;;5.93;2.78;;;;;;;;;;5053702;28;20444;-61
2023/08/16 10:56:38;;;;;;;5.07;2.80;;;;;;;;;;5051711;28;20048;-60
2023/08/16 10:59:05;;;;;;;5.15;3.15;;;;;;;;;;5053287;28;20052;-61
2023/08/16 11:01:34;;;;;;;3.30;1.73;;;;;;;;;;5051757;28;20038;-61
2023/08/16 11:04:00;;;;;;;10.98;3.50;;;;;;;;;;5053161;28;20507;-61
2023/08/16 11:06:25;;;;;;;6.07;2.05;;;;;;;;;;5051290;28;20140;-61
2023/08/16 11:08:50;;;;;;;5.00;2.92;;;;;;;;;;5053200;28;20357;-61
2023/08/16 11:11:15;;;;;;;4.60;2.83;;;;;;;;;;5051442;28;20068;-61
2023/08/16 11:13:41;;;;;;;4.67;2.67;;;;;;;;;;5052912;28;20434;-61
2023/08/16 11:16:09;;;;;;;4.20;2.10;;;;;;;;;;5051901;28;20044;-61
2023/08/16 11:18:35;;;;;;;12.80;3.33;;;;;;;;;;5052528;28;20057;-61
2023/08/16 11:21:00;;;;;;;5.65;2.10;;;;;;;;;;5051324;28;20098;-60
2023/08/16 11:23:46;;;;;;;4.17;1.83;;;;;;;;;;5052606;28;20025;-61
2023/08/16 11:26:11;;;;;;;4.63;2.55;;;;;;;;;;5051332;28;20458;-61
2023/08/16 11:28:37;;;;;;;5.30;2.10;;;;;;;;;;5052358;28;20025;-61
2023/08/16 11:31:06;;;;;;;3.95;2.42;;;;;;;;;;5049816;28;20037;-61
2023/08/16 11:33:34;;;;;;;5.35;3.00;;;;;;;;;;5052530;28;20118;-61
2023/08/16 11:36:00;;;;;;;6.82;3.38;;;;;;;;;;5050906;28;20072;-61
2023/08/16 11:38:27;;;;;;;3.78;2.97;;;;;;;;;;5052062;28;20023;-61
2023/08/16 11:40:52;;;;;;;5.63;2.58;;;;;;;;;;5051246;28;20029;-61
2023/08/16 11:43:17;;;;;;;4.88;2.33;;;;;;;;;;5052101;28;20017;-61
2023/08/16 11:45:49;;;;;;;4.32;2.28;;;;;;;;;;5050975;28;20066;-60
2023/08/16 11:48:16;;;;;;;7.07;3.63;;;;;;;;;;5052151;28;20059;-61
2023/08/16 11:50:42;;;;;;;10.38;2.55;;;;;;;;;;5050815;28;20060;-61
2023/08/16 11:53:07;;;;;;;4.55;2.30;;;;;;;;;;5052265;28;20449;-61
2023/08/16 11:55:33;;;;;;;5.50;2.65;;;;;;;;;;5067438;28;20032;-61
2023/08/16 11:58:05;;;;;;;5.47;1.83;;;;;;;;;;5050446;28;20087;-61
2023/08/16 12:00:31;;;;;;;6.82;2.25;;;;;;;;;;5052308;28;20032;-61
2023/08/16 12:02:57;;;;;;;7.80;3.10;;;;;;;;;;5050869;28;20029;-61
2023/08/16 12:05:23;;;;;;;7.67;2.73;;;;;;;;;;5051575;28;20433;-61
2023/08/16 12:07:49;;;;;;;3.72;2.03;;;;;;;;;;5050807;28;20037;-60
2023/08/16 12:10:21;;;;;;;8.55;2.33;;;;;;;;;;5052050;28;20371;-61
2023/08/16 12:12:46;;;;;;;5.07;1.75;;;;;;;;;;5050286;28;20377;-61
2023/08/16 12:15:11;;;;;;;3.97;2.60;;;;;;;;;;5052139;28;20050;-61
2023/08/16 12:17:36;;;;;;;5.22;3.00;;;;;;;;;;5050488;28;20183;-66
2023/08/16 12:20:01;;;;;;;5.67;2.10;;;;;;;;;;5051055;28;20063;-61
2023/08/16 12:22:26;;;;;;;6.80;2.90;;;;;;;;;;5050238;28;20060;-61
2023/08/16 12:24:52;;;;;;;2.08;1.75;;;;;;;;;;5052153;28;20423;-60
2023/08/16 12:27:17;;;;;;;3.30;1.50;;;;;;;;;;5049752;28;20047;-60
2023/08/16 12:29:42;;;;;;;2.50;1.45;;;;;;;;;;5050274;28;20020;-61
2023/08/16 12:32:07;;;;;;;2.57;1.67;;;;;;;;;;5050326;28;20389;-61
2023/08/16 12:34:32;;;;;;;5.63;1.55;;;;;;;;;;5050921;28;20028;-61
2023/08/16 12:36:57;;;;;;;7.40;2.92;;;;;;;;;;5050152;28;20514;-61
2023/08/16 12:39:22;;;;;;;7.23;2.70;;;;;;;;;;5051438;28;20088;-61
2023/08/16 12:41:48;;;;;;;2.40;1.70;;;;;;;;;;5049753;28;20033;-62
2023/08/16 12:44:15;;;;;;;3.13;1.50;;;;;;;;;;5051242;28;20451;-61
2023/08/16 12:46:40;;;;;;;2.60;1.88;;;;;;;;;;5050218;28;20116;-61
2023/08/16 12:49:05;;;;;;;4.13;1.75;;;;;;;;;;5048926;28;20109;-61
2023/08/16 12:51:31;;;;;;;9.65;2.22;;;;;;;;;;5049850;28;20044;-61
2023/08/16 12:53:56;;;;;;;4.43;2.15;;;;;;;;;;5051572;28;20021;-61
2023/08/16 12:56:22;;;;;;;2.78;1.48;;;;;;;;;;5049147;28;20037;-61
2023/08/16 12:58:48;;;;;;;3.15;2.08;;;;;;;;;;5051377;28;20020;-61
2023/08/16 13:01:14;;;;;;;3.72;1.48;;;;;;;;;;5049765;28;20415;-61
2023/08/16 13:03:39;;;;;;;3.77;1.87;;;;;;;;;;5050783;28;20017;-61
2023/08/16 13:06:05;;;;;;;2.28;1.48;;;;;;;;;;5049702;28;20033;-61
2023/08/16 13:08:30;;;;;;;2.33;1.85;;;;;;;;;;5051077;28;20028;-61
2023/08/16 13:10:55;;;;;;;6.82;1.40;;;;;;;;;;5049261;28;20040;-61
2023/08/16 13:13:21;;;;;;;3.00;1.73;;;;;;;;;;5050834;28;20028;-61
2023/08/16 13:15:46;;;;;;;3.23;1.40;;;;;;;;;;5048334;28;20028;-61
2023/08/16 13:18:11;;;;;;;5.68;1.58;;;;;;;;;;5050291;28;20412;-61
2023/08/16 13:20:36;;;;;;;7.03;2.00;;;;;;;;;;5049611;28;20078;-60
2023/08/16 13:23:01;;;;;;;3.58;1.63;;;;;;;;;;5050971;28;20100;-61
2023/08/16 13:25:26;;;;;;;4.13;2.03;;;;;;;;;;5050225;28;20017;-61
2023/08/16 13:27:51;;;;;;;11.25;2.30;;;;;;;;;;5050021;28;20029;-61
2023/08/16 13:30:17;;;;;;;4.50;2.10;;;;;;;;;;5050601;28;20017;-61
2023/08/16 13:32:42;;;;;;;3.40;1.40;;;;;;;;;;5048998;28;20132;-61
2023/08/16 13:35:07;;;;;;;2.47;1.93;;;;;;;;;;5050945;28;20439;-61
2023/08/16 13:37:32;;;;;;;3.45;1.50;;;;;;;;;;5047781;28;20057;-61
2023/08/16 13:39:58;;;;;;;1.95;1.65;;;;;;;;;;5049457;28;20404;-61
2023/08/16 13:42:23;;;;;;;2.97;1.70;;;;;;;;;;5048415;28;20033;-61
2023/08/16 13:44:48;;;;;;;3.45;2.30;;;;;;;;;;5050698;28;20017;-61
2023/08/16 13:47:14;;;;;;;7.85;1.98;;;;;;;;;;5047262;28;20207;-61
2023/08/16 13:49:39;;;;;;;7.10;1.93;;;;;;;;;;5050666;28;20028;-61
2023/08/16 13:52:04;;;;;;;4.15;1.73;;;;;;;;;;5047745;28;20029;-61
2023/08/16 13:54:29;;;;;;;2.97;2.00;;;;;;;;;;5049959;28;20028;-61
2023/08/16 13:56:54;;;;;;;4.55;2.60;;;;;;;;;;5049192;28;20043;-61
2023/08/16 13:59:20;;;;;;;1.88;1.73;;;;;;;;;;5050353;28;20024;-61
2023/08/16 14:01:46;;;;;;;1.92;1.83;;;;;;;;;;5052482;28;20033;-61
2023/08/16 14:04:11;;;;;;;8.30;2.38;;;;;;;;;;5053953;28;20395;-61
2023/08/16 14:06:36;;;;;;;2.77;1.90;;;;;;;;;;5052875;28;20064;-61
2023/08/16 14:09:01;;;;;;;2.53;1.80;;;;;;;;;;5052637;28;20437;-61
2023/08/16 14:11:26;;;;;;;3.73;1.77;;;;;;;;;;5051140;28;20057;-61
2023/08/16 14:13:52;;;;;;;6.30;1.70;;;;;;;;;;5054140;28;20442;-61
2023/08/16 14:16:17;;;;;;;4.30;1.65;;;;;;;;;;5051085;28;20041;-61
2023/08/16 14:18:43;;;;;;;5.17;1.93;;;;;;;;;;5053454;28;20102;-61
2023/08/16 14:21:08;;;;;;;3.03;1.67;;;;;;;;;;5052842;28;20029;-61
2023/08/16 14:23:33;;;;;;;4.57;2.40;;;;;;;;;;5053879;28;20460;-61
2023/08/16 14:25:58;;;;;;;4.00;1.80;;;;;;;;;;5051779;28;20057;-62
2023/08/16 14:28:24;;;;;;;10.10;2.70;;;;;;;;;;5053407;28;20391;-61
2023/08/16 14:30:49;;;;;;;3.72;1.67;;;;;;;;;;5052111;28;20028;-62